Time;durP1;ratioP1;P1;durP2;ratioP2;P2;SDS_P1;SDS_P2;PMS_P1;PMS_P2;Temp;Humidity;BMP_temperature;BMP_pressure;BME280_temperature;BME280_humidity;BME280_pressure;Samples;Min_cycle;Max_cycle;Signal;HPM_P1;HPM_P2
2022/10/24 00:00:26;;;;;;;;;0.00;0.00;;;;;19.43;59.30;100241.84;4851447;29;45416;-66
2022/10/24 00:02:51;;;;;;;;;0.25;0.00;;;;;19.39;59.22;100227.66;4851537;29;45495;-66
2022/10/24 00:05:17;;;;;;;;;3.00;0.00;;;;;19.42;59.16;100237.38;4858656;29;45382;-66
2022/10/24 00:07:42;;;;;;;;;1.00;0.00;;;;;19.39;59.34;100243.88;4852639;29;45414;-66
2022/10/24 00:10:10;;;;;;;;;0.00;0.00;;;;;19.35;59.56;100239.72;4851649;29;45424;-66
2022/10/24 00:12:36;;;;;;;;;0.00;0.00;;;;;19.37;59.38;100239.59;4855180;29;45626;-66
2022/10/24 00:15:01;;;;;;;;;0.00;0.00;;;;;19.34;59.87;100232.56;4854905;29;48315;-66
2022/10/24 00:17:26;;;;;;;;;2.00;0.00;;;;;19.36;59.46;100229.72;4848528;29;45431;-66
2022/10/24 00:19:53;;;;;;;;;0.00;0.00;;;;;19.34;59.47;100229.00;4854870;29;46295;-66
2022/10/24 00:22:19;;;;;;;;;1.50;0.50;;;;;19.29;59.93;100221.22;4847307;29;45499;-66
2022/10/24 00:24:44;;;;;;;;;0.00;0.00;;;;;19.30;59.66;100230.22;4846752;29;45420;-66
2022/10/24 00:27:10;;;;;;;;;2.00;0.00;;;;;19.21;59.90;100220.94;4847731;29;45514;-66
2022/10/24 00:29:38;;;;;;;;;1.00;0.00;;;;;19.25;59.93;100225.16;4847449;29;48058;-66
2022/10/24 00:32:03;;;;;;;;;1.25;0.00;;;;;19.10;59.85;100210.13;4848142;29;45739;-66
2022/10/24 00:34:29;;;;;;;;;0.00;0.00;;;;;19.12;60.00;100224.38;4847113;29;45491;-66
2022/10/24 00:36:54;;;;;;;;;3.75;1.25;;;;;19.20;60.08;100227.38;4847750;29;45376;-66
2022/10/24 00:39:20;;;;;;;;;1.00;1.00;;;;;19.07;60.05;100219.31;4848047;29;45342;-66
2022/10/24 00:41:45;;;;;;;;;1.00;1.00;;;;;19.02;60.18;100214.25;4848017;29;45507;-66
2022/10/24 00:44:26;;;;;;;;;0.00;0.00;;;;;19.03;60.09;100220.53;4848431;29;45572;-66
2022/10/24 00:47:10;;;;;;;;;0.00;0.00;;;;;19.16;60.27;100248.38;4847976;29;45358;-66
2022/10/24 00:49:59;;;;;;;;;1.00;1.00;;;;;18.97;60.35;100205.63;4846680;29;47545;-66
2022/10/24 00:52:29;;;;;;;;;0.75;0.00;;;;;18.87;60.04;100189.22;4847258;29;45437;-66
2022/10/24 00:54:57;;;;;;;;;0.75;0.75;;;;;18.82;60.34;100187.84;4846604;29;45477;-66
2022/10/24 00:57:39;;;;;;;;;1.50;1.00;;;;;19.02;60.89;100230.47;4859031;29;45479;-66
2022/10/24 01:00:14;;;;;;;;;0.75;0.00;;;;;18.96;60.55;100230.06;4835565;29;46944;-66
2022/10/24 01:02:40;;;;;;;;;0.00;0.00;;;;;18.90;60.54;100230.56;4847669;29;45582;-66
2022/10/24 01:05:08;;;;;;;;;1.00;0.50;;;;;18.91;60.85;100230.44;4852672;29;45427;-66
2022/10/24 01:07:40;;;;;;;;;0.00;0.00;;;;;19.03;60.80;100261.13;4849314;29;45553;-66
2022/10/24 01:10:39;;;;;;;;;2.00;0.00;;;;;19.01;60.94;100265.75;4847642;29;46329;-66
2022/10/24 01:13:30;;;;;;;;;2.50;0.75;;;;;18.70;60.89;100220.22;4844507;29;45250;-66
2022/10/24 01:16:09;;;;;;;;;0.50;0.00;;;;;18.78;60.96;100237.72;4848628;29;45565;-66
2022/10/24 01:19:05;;;;;;;;;3.75;0.00;;;;;18.89;61.29;100272.94;4847268;29;45476;-66
2022/10/24 01:21:45;;;;;;;;;0.00;0.00;;;;;18.92;61.23;100282.69;4847036;29;45862;-66
2022/10/24 01:24:25;;;;;;;;;1.00;0.00;;;;;18.95;61.40;100294.13;4846043;29;45494;-66
2022/10/24 01:27:09;;;;;;;;;1.75;0.00;;;;;18.93;61.34;100301.50;4847542;29;45532;-66
2022/10/24 01:29:56;;;;;;;;;0.00;0.00;;;;;18.94;61.36;100303.22;4847639;29;45384;-66
2022/10/24 01:32:34;;;;;;;;;0.00;0.00;;;;;18.91;61.39;100308.00;4845719;29;47221;-66
2022/10/24 01:35:19;;;;;;;;;0.00;0.00;;;;;18.75;61.40;100283.91;4845302;29;45328;-66
2022/10/24 01:38:05;;;;;;;;;0.75;0.00;;;;;18.79;61.35;100298.91;4845797;29;45488;-66
2022/10/24 01:40:50;;;;;;;;;2.00;0.00;;;;;18.78;61.83;100292.66;4835450;29;45423;-66
2022/10/24 01:43:22;;;;;;;;;0.00;0.00;;;;;18.90;61.54;100315.25;4845671;29;47294;-66
2022/10/24 01:45:53;;;;;;;;;0.25;0.00;;;;;18.77;61.73;100288.22;4845891;29;45512;-66
2022/10/24 01:48:23;;;;;;;;;1.50;0.00;;;;;18.73;61.31;100278.63;4852043;29;45316;-66
2022/10/24 01:50:52;;;;;;;;;1.00;0.00;;;;;18.69;61.90;100279.81;4845340;29;45911;-66
2022/10/24 01:53:20;;;;;;;;;1.00;0.00;;;;;18.67;61.67;100271.81;4846141;29;46483;-66
2022/10/24 01:55:47;;;;;;;;;1.00;1.00;;;;;18.61;61.80;100252.47;4846909;29;45546;-66
2022/10/24 01:58:12;;;;;;;;;0.50;0.00;;;;;18.71;61.71;100275.16;4859123;29;45702;-66
2022/10/24 02:00:38;;;;;;;;;2.25;0.00;;;;;18.75;61.75;100283.91;4846890;29;45635;-66
2022/10/24 02:03:09;;;;;;;;;1.75;1.00;;;;;18.82;61.94;100304.09;4845531;29;47126;-66
2022/10/24 02:05:58;;;;;;;;;0.00;0.00;;;;;18.69;61.83;100278.00;4853549;29;45359;-66
2022/10/24 02:08:34;;;;;;;;;0.75;0.75;;;;;18.66;62.00;100272.81;4847111;29;45461;-66
2022/10/24 02:11:05;;;;;;;;;0.25;0.25;;;;;18.67;62.14;100273.66;4846765;29;45507;-66
2022/10/24 02:13:44;;;;;;;;;2.00;0.75;;;;;18.66;61.69;100272.81;4857034;29;46252;-66
2022/10/24 02:16:11;;;;;;;;;2.00;0.00;;;;;18.81;61.86;100297.84;4846681;29;45544;-66
2022/10/24 02:18:38;;;;;;;;;0.00;0.00;;;;;18.67;62.08;100260.13;4846774;29;45393;-66
2022/10/24 02:21:22;;;;;;;;;0.00;0.00;;;;;18.84;62.27;100288.66;4845456;29;45340;-66
2022/10/24 02:23:56;;;;;;;;;0.50;0.00;;;;;18.74;62.05;100274.06;4845384;29;46498;-66
2022/10/24 02:26:48;;;;;;;;;0.00;0.00;;;;;18.65;62.21;100257.53;4848283;29;45439;-66
2022/10/24 02:29:24;;;;;;;;;0.75;0.00;;;;;18.64;62.06;100254.94;4835281;29;45526;-66
2022/10/24 02:31:55;;;;;;;;;0.50;0.25;;;;;18.70;62.10;100260.78;4846463;29;45686;-66
2022/10/24 02:34:23;;;;;;;;;2.00;0.00;;;;;18.61;62.11;100242.53;4846535;29;45546;-66
2022/10/24 02:36:54;;;;;;;;;0.50;0.00;;;;;18.76;62.11;100253.19;4845241;29;45485;-66
2022/10/24 02:39:21;;;;;;;;;0.50;0.50;;;;;18.65;62.30;100244.03;4846686;29;45485;-66
2022/10/24 02:41:49;;;;;;;;;1.00;0.25;;;;;18.61;62.23;100241.66;4844984;29;45398;-66
2022/10/24 02:44:17;;;;;;;;;0.00;0.00;;;;;18.65;62.41;100235.06;4851785;29;45406;-66
2022/10/24 02:46:45;;;;;;;;;0.00;0.00;;;;;18.73;62.58;100257.00;4847534;29;45500;-66
2022/10/24 02:49:11;;;;;;;;;0.25;0.25;;;;;18.72;62.52;100249.84;4845129;29;45421;-66
2022/10/24 02:51:40;;;;;;;;;0.00;0.00;;;;;18.66;62.11;100239.47;4844780;29;45619;-66
2022/10/24 02:54:06;;;;;;;;;0.75;0.75;;;;;18.74;62.42;100247.03;4843905;29;47924;-66
2022/10/24 02:56:36;;;;;;;;;0.50;0.50;;;;;18.49;62.26;100211.88;4845464;29;45451;-66
2022/10/24 02:59:02;;;;;;;;;2.00;0.00;;;;;18.69;62.79;100242.84;4846340;29;45496;-66
2022/10/24 03:01:27;;;;;;;;;1.25;0.00;;;;;18.63;62.55;100239.72;4844976;29;45378;-66
2022/10/24 03:03:52;;;;;;;;;0.75;0.75;;;;;18.37;62.39;100199.25;4846091;29;45719;-65
2022/10/24 03:06:18;;;;;;;;;2.50;0.00;;;;;18.62;62.42;100244.25;4853562;29;45532;-66
2022/10/24 03:08:43;;;;;;;;;0.75;0.50;;;;;18.47;62.55;100223.78;4846217;29;45360;-66
2022/10/24 03:11:09;;;;;;;;;0.50;0.50;;;;;18.44;62.83;100221.28;4846085;29;45554;-66
2022/10/24 03:13:34;;;;;;;;;0.00;0.00;;;;;18.43;62.61;100228.53;4855196;29;47162;-66
2022/10/24 03:15:59;;;;;;;;;1.25;0.00;;;;;18.46;63.12;100236.44;4857918;29;45620;-66
2022/10/24 03:18:25;;;;;;;;;0.75;0.75;;;;;18.36;63.01;100218.28;4844736;29;45451;-66
2022/10/24 03:20:50;;;;;;;;;0.00;0.00;;;;;18.49;63.10;100260.53;4844885;29;45429;-66
2022/10/24 03:23:18;;;;;;;;;1.75;1.25;;;;;18.44;63.01;100254.59;4845329;29;45380;-66
2022/10/24 03:25:43;;;;;;;;;1.25;0.50;;;;;18.39;62.98;100254.03;4844049;29;45789;-66
2022/10/24 03:28:09;;;;;;;;;2.25;0.00;;;;;18.29;63.38;100248.47;4847912;29;45371;-66
2022/10/24 03:30:34;;;;;;;;;1.25;0.00;;;;;18.41;63.36;100264.75;4844605;29;45398;-66
2022/10/24 03:33:00;;;;;;;;;0.50;0.50;;;;;18.20;63.05;100237.47;4844548;29;45485;-66
2022/10/24 03:35:25;;;;;;;;;2.50;0.00;;;;;18.32;63.37;100256.31;4845621;29;45298;-66
2022/10/24 03:37:50;;;;;;;;;2.50;0.00;;;;;18.40;63.42;100272.00;4844264;29;45795;-66
2022/10/24 03:40:16;;;;;;;;;1.75;0.00;;;;;18.28;63.65;100262.09;4845600;29;45429;-66
2022/10/24 03:42:41;;;;;;;;;3.00;0.00;;;;;18.35;63.67;100278.72;4844293;29;46973;-66
2022/10/24 03:45:07;;;;;;;;;3.25;0.75;;;;;18.24;63.89;100264.16;4851668;29;45492;-66
2022/10/24 03:47:33;;;;;;;;;0.00;0.00;;;;;18.37;63.70;100296.53;4845642;29;45428;-66
2022/10/24 03:49:58;;;;;;;;;7.25;1.25;;;;;18.09;63.87;100252.63;4848404;29;45428;-66
2022/10/24 03:52:23;;;;;;;;;1.75;0.75;;;;;18.25;64.17;100275.81;4847295;29;45571;-66
2022/10/24 03:54:49;;;;;;;;;3.00;1.00;;;;;18.25;63.70;100281.22;4847906;29;45472;-66
2022/10/24 03:57:15;;;;;;;;;4.25;1.50;;;;;18.21;64.03;100280.56;4859361;29;45479;-66
2022/10/24 03:59:43;;;;;;;;;3.00;1.75;;;;;18.15;63.99;100281.88;4849314;29;45433;-66
2022/10/24 04:02:09;;;;;;;;;1.25;1.00;;;;;18.33;64.35;100306.69;4847288;29;47005;-66
2022/10/24 04:04:34;;;;;;;;;1.00;0.50;;;;;18.19;64.27;100290.59;4849872;29;45383;-66
2022/10/24 04:06:59;;;;;;;;;2.75;1.75;;;;;18.20;64.16;100302.28;4854628;29;45360;-66
2022/10/24 04:09:26;;;;;;;;;2.00;0.00;;;;;18.29;63.88;100318.72;4848447;29;45338;-66
2022/10/24 04:11:52;;;;;;;;;3.00;1.50;;;;;18.19;64.02;100304.13;4848323;29;45576;-66
2022/10/24 04:14:19;;;;;;;;;2.00;0.50;;;;;18.07;64.00;100286.09;4858213;29;45696;-65
2022/10/24 04:16:45;;;;;;;;;2.00;1.00;;;;;18.14;64.16;100300.88;4848325;29;45455;-66
2022/10/24 04:19:10;;;;;;;;;2.75;1.75;;;;;18.03;64.43;100282.75;4848412;29;45503;-66
2022/10/24 04:21:36;;;;;;;;;3.00;0.50;;;;;18.13;64.19;100297.31;4846773;29;46410;-66
2022/10/24 04:24:02;;;;;;;;;1.00;1.00;;;;;18.17;64.31;100308.78;4846735;29;46016;-66
2022/10/24 04:26:28;;;;;;;;;3.00;1.00;;;;;18.15;64.43;100303.47;4848696;29;45426;-66
2022/10/24 04:28:53;;;;;;;;;3.25;0.75;;;;;18.30;64.51;100333.09;4848092;29;46124;-66
2022/10/24 04:31:18;;;;;;;;;2.50;1.50;;;;;18.24;64.66;100326.28;4848301;29;45525;-66
2022/10/24 04:33:44;;;;;;;;;2.50;0.50;;;;;18.04;64.61;100298.00;4846892;29;45407;-66
2022/10/24 04:36:09;;;;;;;;;0.75;0.00;;;;;18.28;64.49;100338.59;4848029;29;45500;-65
2022/10/24 04:38:35;;;;;;;;;0.75;0.75;;;;;18.29;64.31;100353.84;4846657;29;45670;-66
2022/10/24 04:41:00;;;;;;;;;1.75;0.75;;;;;18.12;64.67;100327.13;4848092;29;46253;-65
2022/10/24 04:43:26;;;;;;;;;3.25;0.50;;;;;18.12;64.61;100343.34;4847605;29;45375;-66
2022/10/24 04:45:52;;;;;;;;;2.50;0.50;;;;;18.25;64.48;100373.94;4848170;29;45572;-66
2022/10/24 04:48:17;;;;;;;;;0.00;0.00;;;;;18.21;64.75;100372.44;4847863;29;46297;-66
2022/10/24 04:50:44;;;;;;;;;3.75;0.50;;;;;18.08;64.87;100358.06;4846761;29;45666;-66
2022/10/24 04:53:10;;;;;;;;;5.00;0.00;;;;;18.07;64.85;100351.75;4844874;29;45417;-66
2022/10/24 04:55:35;;;;;;;;;1.75;1.00;;;;;18.12;65.13;100359.56;4847917;29;45924;-66
2022/10/24 04:58:01;;;;;;;;;4.00;3.00;;;;;17.99;64.92;100340.63;4859230;29;45675;-66
2022/10/24 05:00:26;;;;;;;;;5.50;2.75;;;;;17.87;64.91;100331.56;4845908;29;46937;-66
2022/10/24 05:02:52;;;;;;;;;1.00;0.00;;;;;17.88;64.83;100338.69;4847535;29;45372;-66
2022/10/24 05:05:18;;;;;;;;;1.50;0.25;;;;;17.99;65.32;100369.47;4854867;29;45367;-66
2022/10/24 05:07:44;;;;;;;;;7.25;1.50;;;;;17.93;65.35;100358.13;4848204;29;45393;-66
2022/10/24 05:10:10;;;;;;;;;1.50;0.50;;;;;17.98;65.15;100371.31;4847647;29;45445;-66
2022/10/24 05:12:35;;;;;;;;;1.25;0.50;;;;;17.91;64.92;100368.19;4849884;29;46237;-66
2022/10/24 05:15:01;;;;;;;;;5.25;1.50;;;;;17.99;65.09;100385.69;4852521;29;45332;-66
2022/10/24 05:17:26;;;;;;;;;4.25;1.50;;;;;17.94;65.10;100381.47;4846131;29;45380;-66
2022/10/24 05:19:52;;;;;;;;;0.50;0.50;;;;;18.00;65.43;100393.69;4846124;29;47271;-66
2022/10/24 05:22:17;;;;;;;;;3.50;0.25;;;;;17.83;65.30;100370.50;4845718;29;45429;-66
2022/10/24 05:24:43;;;;;;;;;1.25;0.25;;;;;17.93;65.39;100404.03;4846174;29;46620;-66
2022/10/24 05:27:08;;;;;;;;;3.50;2.75;;;;;17.82;65.32;100381.41;4849024;29;45467;-66
2022/10/24 05:29:34;;;;;;;;;3.75;0.50;;;;;18.06;65.52;100416.69;4847515;29;45317;-66
2022/10/24 05:31:59;;;;;;;;;1.50;1.00;;;;;17.93;65.38;100408.59;4845289;29;45843;-66
2022/10/24 05:34:26;;;;;;;;;2.00;0.75;;;;;17.92;65.61;100407.69;4847017;29;45510;-66
2022/10/24 05:36:51;;;;;;;;;2.25;0.50;;;;;18.09;65.21;100438.97;4846287;29;45551;-65
2022/10/24 05:39:17;;;;;;;;;2.50;0.75;;;;;17.98;65.65;100424.47;4846505;29;45395;-65
2022/10/24 05:41:42;;;;;;;;;6.25;1.25;;;;;17.90;65.57;100422.28;4846526;29;45257;-66
2022/10/24 05:44:10;;;;;;;;;5.00;1.50;;;;;18.02;65.97;100434.94;4846056;29;45400;-66
2022/10/24 05:46:35;;;;;;;;;2.50;0.50;;;;;18.04;65.93;100448.34;4846982;29;45435;-66
2022/10/24 05:49:01;;;;;;;;;3.50;2.00;;;;;17.95;65.88;100428.25;4845877;29;46788;-66
2022/10/24 05:51:26;;;;;;;;;1.50;0.50;;;;;17.85;65.57;100410.91;4846497;29;45610;-66
2022/10/24 05:53:52;;;;;;;;;1.00;0.50;;;;;17.86;66.06;100412.63;4846120;29;45568;-66
2022/10/24 05:56:17;;;;;;;;;1.75;1.75;;;;;18.02;65.96;100444.91;4847839;29;46191;-66
2022/10/24 05:58:42;;;;;;;;;1.25;0.50;;;;;18.05;66.13;100448.25;4854930;29;45623;-66
2022/10/24 06:01:08;;;;;;;;;1.75;1.75;;;;;17.86;66.04;100416.22;4840641;29;45803;-65
2022/10/24 06:03:33;;;;;;;;;3.25;0.50;;;;;17.89;66.02;100423.25;4846748;29;45456;-66
2022/10/24 06:11:37;;;;;;;;;2.75;0.50;;;;;17.96;66.15;100446.19;4715729;27;45440;-69
2022/10/24 06:14:55;;;;;;;;;;;;;;;;;;;;;
2022/10/24 06:24:56;;;;;;;;;2.00;1.00;;;;;17.90;66.41;100447.44;4798804;29;45615;-70
2022/10/24 06:28:10;;;;;;;;;;;;;;;;;;;;;
2022/10/24 06:31:27;;;;;;;;;;;;;;;;;;;;;
2022/10/24 06:38:10;;;;;;;;;1.50;1.25;;;;;17.96;66.02;100474.03;4804584;29;45625;-70
2022/10/24 06:44:10;;;;;;;;;3.00;1.50;;;;;17.92;65.92;100475.22;4803438;29;45514;-69
2022/10/24 06:46:58;;;;;;;;;1.75;1.50;;;;;17.89;66.43;100485.34;4783671;29;45415;-70
2022/10/24 06:49:54;;;;;;;;;;;;;;;;;;;;;
2022/10/24 06:56:21;;;;;;;;;;;;;;;;;;;;;
2022/10/24 07:12:46;;;;;;;;;;;;;;;;;;;;;
2022/10/24 07:19:32;;;;;;;;;5.50;4.25;;;;;17.69;66.13;100482.13;4805447;29;45556;-70
2022/10/24 07:21:57;;;;;;;;;6.25;2.75;;;;;17.69;66.06;100492.94;4799158;29;46042;-64
2022/10/24 07:24:35;;;;;;;;;4.00;3.00;;;;;17.69;66.23;100506.44;4826720;29;45728;-69
2022/10/24 07:27:39;;;;;;;;;6.75;3.00;;;;;17.79;66.52;100536.34;4831350;29;45990;-66
2022/10/24 07:38:03;;;;;;;;;;;;;;;;;;;;;
2022/10/24 08:12:41;;;;;;;;;;;;;;;;;;;;;
2022/10/24 08:51:29;;;;;;;;;1.75;0.50;;;;;17.95;66.70;100603.78;5018361;23;45467;-76
2022/10/24 08:53:57;;;;;;;;;6.25;1.50;;;;;18.01;66.92;100622.28;4827176;29;45991;-76
2022/10/24 08:56:28;;;;;;;;;5.75;2.75;;;;;18.02;67.41;100615.03;4831149;29;45376;-76
2022/10/24 08:58:55;;;;;;;;;1.25;1.25;;;;;18.03;67.01;100620.34;4828668;29;45297;-76
2022/10/24 09:01:51;;;;;;;;;1.50;1.00;;;;;18.07;66.90;100624.56;4828526;29;45546;-76
2022/10/24 09:04:20;;;;;;;;;4.00;2.25;;;;;18.08;67.07;100622.75;4827346;29;45582;-76
2022/10/24 09:06:48;;;;;;;;;3.25;1.50;;;;;18.11;66.84;100626.09;4831614;29;45420;-76
2022/10/24 09:09:26;;;;;;;;;2.50;2.50;;;;;18.11;67.02;100618.00;4828510;29;45313;-76
2022/10/24 09:12:01;;;;;;;;;3.00;1.25;;;;;18.08;67.06;100615.50;4828548;29;45467;-76
2022/10/24 09:14:29;;;;;;;;;2.75;1.00;;;;;18.13;67.31;100629.56;4842853;29;45757;-73
2022/10/24 09:17:21;;;;;;;;;3.50;1.50;;;;;18.15;66.87;100622.22;4827961;29;45502;-76
2022/10/24 09:20:02;;;;;;;;;2.00;1.50;;;;;18.08;67.10;100626.31;4839884;29;46038;-78
2022/10/24 09:22:30;;;;;;;;;1.00;1.00;;;;;18.11;67.42;100611.75;4829494;29;45355;-78
2022/10/24 09:25:01;;;;;;;;;3.50;2.00;;;;;18.17;66.99;100622.13;4827491;29;45301;-77
2022/10/24 09:27:30;;;;;;;;;2.00;1.00;;;;;18.24;67.11;100631.56;4820349;29;45545;-77
2022/10/24 09:29:57;;;;;;;;;5.75;2.00;;;;;18.22;66.96;100627.22;4829529;29;45810;-74
2022/10/24 09:32:29;;;;;;;;;2.00;1.50;;;;;18.30;66.84;100638.41;4831455;29;46163;-77
2022/10/24 09:35:02;;;;;;;;;1.00;1.00;;;;;18.29;66.99;100636.66;4828326;29;45813;-76
2022/10/24 09:37:29;;;;;;;;;1.50;1.00;;;;;18.32;66.59;100637.31;4814816;29;45346;-76
2022/10/24 09:40:28;;;;;;;;;1.00;1.00;;;;;18.33;66.90;100644.47;4816182;29;45254;-76
2022/10/24 09:43:16;;;;;;;;;3.50;1.00;;;;;18.33;66.85;100652.56;4823055;29;46236;-77
2022/10/24 09:45:49;;;;;;;;;6.00;2.25;;;;;18.36;66.85;100656.03;4815548;29;46642;-77
2022/10/24 09:48:21;;;;;;;;;4.00;3.00;;;;;18.35;67.09;100655.16;4811791;29;45435;-76
2022/10/24 09:50:48;;;;;;;;;4.00;1.25;;;;;18.30;67.29;100660.88;4819516;29;45383;-77
2022/10/24 09:53:21;;;;;;;;;1.50;1.50;;;;;18.37;67.20;100661.31;4818521;29;46114;-77
2022/10/24 09:55:51;;;;;;;;;3.25;2.75;;;;;18.45;67.06;100666.22;4813480;29;46167;-76
2022/10/24 09:58:20;;;;;;;;;5.00;1.75;;;;;18.46;67.15;100670.66;4834808;29;45350;-76
2022/10/24 10:00:57;;;;;;;;;2.00;2.00;;;;;18.40;67.51;100652.16;4825456;29;45602;-77
2022/10/24 10:03:23;;;;;;;;;3.25;1.75;;;;;18.49;67.05;100671.34;4828386;29;45487;-77
2022/10/24 10:05:51;;;;;;;;;4.25;2.25;;;;;18.51;67.29;100674.81;4829250;29;45364;-76
2022/10/24 10:08:39;;;;;;;;;2.25;2.00;;;;;18.49;67.46;100665.94;4814615;29;45386;-77
2022/10/24 10:11:11;;;;;;;;;3.00;1.00;;;;;18.56;67.49;100673.63;4809716;29;45314;-77
2022/10/24 10:13:49;;;;;;;;;4.00;1.75;;;;;18.60;67.06;100681.41;4827231;29;45577;-77
2022/10/24 10:16:21;;;;;;;;;4.75;1.00;;;;;18.62;67.00;100684.03;4830826;29;45760;-76
2022/10/24 10:18:47;;;;;;;;;2.25;2.25;;;;;18.60;66.84;100670.59;4820483;29;45359;-77
2022/10/24 10:21:20;;;;;;;;;3.25;1.75;;;;;18.66;66.85;100680.13;4824216;29;45298;-77
2022/10/24 10:23:49;;;;;;;;;2.75;2.75;;;;;18.69;66.65;100685.34;4821542;29;48166;-76
2022/10/24 10:26:44;;;;;;;;;2.00;0.75;;;;;18.73;66.77;100678.78;4823988;29;45462;-77
2022/10/24 10:29:15;;;;;;;;;1.75;1.25;;;;;18.77;66.73;100679.41;4831659;29;45699;-77
2022/10/24 10:31:45;;;;;;;;;3.00;2.75;;;;;18.80;66.64;100684.63;4823754;29;45431;-80
2022/10/24 10:34:10;;;;;;;;;3.75;0.75;;;;;18.82;66.91;100683.53;4832850;29;45679;-77
2022/10/24 10:36:58;;;;;;;;;4.00;2.00;;;;;18.85;66.55;100680.66;4841336;29;45672;-77
2022/10/24 10:39:26;;;;;;;;;4.50;2.75;;;;;18.87;66.78;100681.41;4833120;29;45376;-77
2022/10/24 10:41:54;;;;;;;;;2.50;1.00;;;;;18.90;66.48;100677.66;4814026;29;47516;-77
2022/10/24 10:44:38;;;;;;;;;3.00;1.00;;;;;18.93;66.45;100681.97;4835653;29;47322;-77
2022/10/24 10:47:15;;;;;;;;;3.25;2.00;;;;;18.96;66.74;100682.66;4824473;29;45351;-77
2022/10/24 10:49:41;;;;;;;;;2.25;1.00;;;;;19.00;66.34;100683.31;4812332;29;45325;-77
2022/10/24 10:52:25;;;;;;;;;2.25;1.00;;;;;19.04;65.95;100685.69;4809147;29;45617;-76
2022/10/24 10:54:59;;;;;;;;;1.25;1.00;;;;;19.08;65.94;100689.06;4808592;29;46734;-77
2022/10/24 10:57:53;;;;;;;;;2.00;1.00;;;;;19.13;66.11;100681.47;4815325;29;45412;-77
2022/10/24 11:00:41;;;;;;;;;3.50;2.00;;;;;19.14;65.56;100691.31;4817171;29;45426;-77
2022/10/24 11:03:33;;;;;;;;;2.75;1.25;;;;;19.20;65.43;100693.59;4826360;29;45606;-77
2022/10/24 11:06:20;;;;;;;;;2.00;1.00;;;;;19.19;66.07;100675.63;4826875;29;45714;-77
2022/10/24 11:08:53;;;;;;;;;1.25;1.00;;;;;19.27;65.52;100691.34;4819604;29;45838;-77
2022/10/24 11:11:23;;;;;;;;;1.75;1.00;;;;;19.31;65.63;100694.69;4819211;29;45469;-77
2022/10/24 11:13:57;;;;;;;;;2.00;1.00;;;;;19.32;65.05;100693.72;4838063;29;45442;-77
2022/10/24 11:16:27;;;;;;;;;2.00;1.00;;;;;19.34;65.33;100680.94;4818896;29;45920;-77
2022/10/24 11:18:59;;;;;;;;;2.75;1.50;;;;;19.34;65.58;100694.47;4837207;29;45468;-77
2022/10/24 11:21:29;;;;;;;;;2.25;1.00;;;;;19.38;64.98;100677.06;4824128;29;45857;-77
2022/10/24 11:24:04;;;;;;;;;1.00;1.00;;;;;19.43;64.76;100700.13;4835092;29;45658;-77
2022/10/24 11:26:57;;;;;;;;;3.50;1.00;;;;;19.44;64.77;100695.56;4828860;29;47568;-77
2022/10/24 11:29:27;;;;;;;;;3.00;2.00;;;;;19.42;64.80;100692.09;4822290;29;45683;-77
2022/10/24 11:31:59;;;;;;;;;2.50;0.75;;;;;19.40;64.89;100691.34;4821782;29;46044;-77
2022/10/24 11:34:46;;;;;;;;;2.00;2.00;;;;;19.43;65.37;100694.72;4823713;29;45390;-77
2022/10/24 11:37:18;;;;;;;;;4.50;1.00;;;;;19.46;65.05;100695.47;4838456;29;47346;-77
2022/10/24 11:40:10;;;;;;;;;1.75;1.00;;;;;19.47;65.20;100692.66;4838526;29;45561;-77
2022/10/24 11:50:38;;;;;;;;;1.00;1.00;;;;;19.54;65.25;100693.94;5177391;23;46067;-76
2022/10/24 11:53:28;;;;;;;;;2.00;1.00;;;;;19.54;65.97;100693.94;4857029;29;45405;-76
2022/10/24 11:56:12;;;;;;;;;2.50;2.00;;;;;19.53;66.62;100686.81;4850337;29;45490;-75
2022/10/24 11:58:52;;;;;;;;;1.75;1.25;;;;;19.53;66.23;100688.63;4837135;29;46987;-76
2022/10/24 12:01:32;;;;;;;;;1.25;0.75;;;;;19.53;66.19;100683.22;4841663;29;46047;-76
2022/10/24 12:04:25;;;;;;;;;1.00;1.00;;;;;19.53;66.03;100662.44;4838562;29;45604;-76
2022/10/24 12:06:56;;;;;;;;;1.00;0.00;;;;;19.53;66.07;100665.16;4837168;29;45390;-76
2022/10/24 12:09:39;;;;;;;;;4.00;1.00;;;;;19.55;66.02;100665.91;4838322;29;47413;-76
2022/10/24 12:12:15;;;;;;;;;3.75;2.00;;;;;19.44;65.47;100647.72;4829699;29;45704;-76
2022/10/24 12:14:50;;;;;;;;;1.00;1.00;;;;;19.56;65.07;100659.53;4840284;29;45421;-76
2022/10/24 12:17:27;;;;;;;;;3.25;1.75;;;;;19.58;65.19;100660.25;4837522;29;45406;-76
2022/10/24 12:19:53;;;;;;;;;2.75;1.00;;;;;19.58;65.10;100656.72;4847202;29;48249;-76
2022/10/24 12:22:32;;;;;;;;;1.00;1.00;;;;;19.52;64.72;100643.59;4842850;29;45204;-76
2022/10/24 12:25:07;;;;;;;;;1.25;0.25;;;;;19.61;64.67;100660.06;4849857;29;45985;-77
2022/10/24 12:27:37;;;;;;;;;2.00;1.00;;;;;19.62;64.76;100659.06;4861551;29;45444;-77
2022/10/24 12:30:08;;;;;;;;;1.25;1.25;;;;;19.61;64.29;100657.34;4853760;29;47174;-77
2022/10/24 12:32:41;;;;;;;;;7.00;1.00;;;;;19.59;64.34;100650.28;4847016;29;45731;-77
2022/10/24 12:35:45;;;;;;;;;0.50;0.50;;;;;19.62;64.39;100658.19;4845599;29;45897;-77
2022/10/24 12:38:37;;;;;;;;;2.75;1.00;;;;;19.62;64.16;100655.50;4825119;29;45798;-77
2022/10/24 12:41:33;;;;;;;;;2.00;1.00;;;;;19.62;64.42;100666.31;4828310;29;45473;-77
2022/10/24 12:44:32;;;;;;;;;2.75;1.00;;;;;19.63;64.63;100663.50;4846937;29;45319;-77
2022/10/24 12:46:58;;;;;;;;;1.50;1.00;;;;;19.63;64.53;100665.34;4838864;29;45711;-77
2022/10/24 12:49:30;;;;;;;;;2.00;2.00;;;;;19.62;64.44;100653.63;4842584;29;45434;-77
2022/10/24 12:51:56;;;;;;;;;2.75;1.00;;;;;19.61;64.50;100654.63;4847701;29;47582;-77
2022/10/24 12:54:41;;;;;;;;;3.00;1.75;;;;;19.61;64.19;100660.06;4848198;29;45468;-77
2022/10/24 12:57:07;;;;;;;;;3.00;0.00;;;;;19.60;64.23;100657.44;4843712;29;45461;-77
2022/10/24 12:59:53;;;;;;;;;1.00;1.00;;;;;19.60;64.46;100666.44;4837651;29;45870;-77
2022/10/24 13:02:18;;;;;;;;;2.00;1.00;;;;;19.62;64.50;100671.75;4841534;29;45852;-77
2022/10/24 13:04:54;;;;;;;;;4.00;1.00;;;;;19.61;64.78;100670.00;4838324;29;45605;-76
2022/10/24 13:08:04;;;;;;;;;2.00;1.00;;;;;19.59;64.83;100656.56;4845532;29;45366;-77
2022/10/24 13:11:01;;;;;;;;;2.75;1.50;;;;;19.57;64.89;100649.53;4845207;29;46126;-77
2022/10/24 13:13:49;;;;;;;;;1.75;0.75;;;;;19.62;64.97;100661.75;4857541;29;46255;-77
2022/10/24 13:16:36;;;;;;;;;0.50;0.50;;;;;19.62;65.29;100650.06;4839585;29;45859;-77
2022/10/24 13:19:14;;;;;;;;;2.00;2.00;;;;;19.55;65.45;100654.22;4828806;29;45537;-77
2022/10/24 13:21:47;;;;;;;;;4.00;2.00;;;;;19.55;65.26;100655.06;4837612;29;45694;-77
2022/10/24 13:24:15;;;;;;;;;2.50;2.00;;;;;19.60;65.46;100674.56;4846569;29;48482;-77
2022/10/24 13:26:42;;;;;;;;;5.25;2.00;;;;;19.59;65.30;100670.09;4842795;29;45577;-77
2022/10/24 13:29:31;;;;;;;;;2.50;2.00;;;;;19.54;65.40;100661.44;4846377;29;45625;-77
2022/10/24 13:32:02;;;;;;;;;2.75;1.00;;;;;19.56;65.30;100664.94;4836188;29;45522;-77
2022/10/24 13:34:53;;;;;;;;;1.50;0.50;;;;;19.56;65.05;100670.34;4851835;29;48466;-77
2022/10/24 13:37:28;;;;;;;;;1.75;1.00;;;;;19.52;65.37;100663.41;4855819;29;46323;-77
2022/10/24 13:40:01;;;;;;;;;4.00;1.50;;;;;19.54;65.37;100674.13;4842844;29;45591;-77
2022/10/24 13:42:32;;;;;;;;;3.25;1.75;;;;;19.55;65.45;100674.00;4845456;29;45362;-77
2022/10/24 13:45:03;;;;;;;;;2.25;1.75;;;;;19.53;65.18;100675.97;4827054;29;48458;-76
2022/10/24 13:47:59;;;;;;;;;3.75;1.75;;;;;19.55;65.07;100678.56;4831915;29;45361;-77
2022/10/24 13:50:30;;;;;;;;;1.75;1.75;;;;;19.53;65.06;100656.13;4839186;29;45758;-77
2022/10/24 13:53:11;;;;;;;;;3.50;1.00;;;;;19.52;64.91;100655.28;4838036;29;45464;-77
2022/10/24 13:55:41;;;;;;;;;2.75;1.75;;;;;19.54;65.12;100649.75;4832600;29;46011;-77
2022/10/24 13:58:16;;;;;;;;;1.00;1.00;;;;;19.53;65.05;100669.66;4847081;29;45522;-76
2022/10/24 14:00:45;;;;;;;;;0.50;0.25;;;;;19.47;65.15;100646.63;4844782;29;45434;-77
2022/10/24 14:03:15;;;;;;;;;1.50;1.00;;;;;19.49;64.91;100657.34;4847216;29;45549;-77
2022/10/24 14:05:50;;;;;;;;;1.75;1.75;;;;;19.48;65.06;100647.47;4829508;29;47737;-77
2022/10/24 14:08:44;;;;;;;;;3.25;1.00;;;;;19.50;65.01;100648.25;4844940;29;45978;-77
2022/10/24 14:11:17;;;;;;;;;2.00;2.00;;;;;19.49;65.33;100652.78;4842884;29;45331;-77